Terminal Aerodrome Forecast
Issued by NWS

Home | Current Version | Previous Version | Text Only | Print | Product List | Glossary On
Versions: 1 2 3 4 5 6 7 8 9 10 11 12 13 14
000
FTUS44 KLZK 272200 AAA
TAFHRO
TAF AMD
KHRO 272231Z 2723/2818 07007KT 1SM -SN BR SCT025 OVC040
      TEMPO 2723/2801 3SM -SN BR OVC015
     FM280100 08007KT P6SM OVC040
     FM281400 08007KT P6SM SCT025 OVC050=

USA.gov is the U.S. government's official web portal to all federal, state and local government web resources and services.